sensor_id;sensor_type;location;lat;lon;timestamp;pressure;altitude;pressure_sealevel;temperature;humidity
8334;BME280;4204;43.004;23.052;2023-02-04T00:00:31;93603.09;;;1.85;100.00
8334;BME280;4204;43.004;23.052;2023-02-04T00:03:02;93596.81;;;1.61;100.00
8334;BME280;4204;43.004;23.052;2023-02-04T00:05:30;93596.53;;;1.57;100.00
8334;BME280;4204;43.004;23.052;2023-02-04T00:07:58;93587.13;;;1.51;100.00
8334;BME280;4204;43.004;23.052;2023-02-04T00:10:26;93599.97;;;1.53;100.00
8334;BME280;4204;43.004;23.052;2023-02-04T00:12:54;93590.25;;;1.53;100.00
8334;BME280;4204;43.004;23.052;2023-02-04T00:15:23;93584.72;;;1.80;100.00
8334;BME280;4204;43.004;23.052;2023-02-04T00:17:51;93592.59;;;1.85;100.00
8334;BME280;4204;43.004;23.052;2023-02-04T00:20:19;93586.56;;;2.00;100.00
8334;BME280;4204;43.004;23.052;2023-02-04T00:22:47;93589.63;;;2.22;100.00
8334;BME280;4204;43.004;23.052;2023-02-04T00:25:14;93582.25;;;2.44;100.00
8334;BME280;4204;43.004;23.052;2023-02-04T00:27:42;93580.38;;;2.50;100.00
8334;BME280;4204;43.004;23.052;2023-02-04T00:30:11;93579.06;;;2.52;100.00
8334;BME280;4204;43.004;23.052;2023-02-04T00:32:41;93581.19;;;2.45;100.00
8334;BME280;4204;43.004;23.052;2023-02-04T00:35:11;93575.19;;;2.34;100.00
8334;BME280;4204;43.004;23.052;2023-02-04T00:37:39;93566.00;;;2.32;100.00
8334;BME280;4204;43.004;23.052;2023-02-04T00:40:08;93562.84;;;2.40;100.00
8334;BME280;4204;43.004;23.052;2023-02-04T00:42:38;93562.34;;;2.28;100.00
8334;BME280;4204;43.004;23.052;2023-02-04T00:45:07;93546.59;;;2.33;100.00
8334;BME280;4204;43.004;23.052;2023-02-04T00:47:34;93542.66;;;2.30;100.00
8334;BME280;4204;43.004;23.052;2023-02-04T00:50:04;93537.63;;;2.44;100.00
8334;BME280;4204;43.004;23.052;2023-02-04T00:52:32;93530.94;;;2.13;100.00
8334;BME280;4204;43.004;23.052;2023-02-04T00:54:59;93538.78;;;2.08;100.00
8334;BME280;4204;43.004;23.052;2023-02-04T00:57:27;93542.22;;;2.03;100.00
8334;BME280;4204;43.004;23.052;2023-02-04T00:59:55;93538.56;;;1.99;100.00
8334;BME280;4204;43.004;23.052;2023-02-04T01:02:23;93533.63;;;1.88;100.00
8334;BME280;4204;43.004;23.052;2023-02-04T01:04:51;93523.09;;;1.98;100.00
8334;BME280;4204;43.004;23.052;2023-02-04T01:07:20;93523.88;;;1.93;100.00
8334;BME280;4204;43.004;23.052;2023-02-04T01:09:48;93513.06;;;2.15;100.00
8334;BME280;4204;43.004;23.052;2023-02-04T01:12:16;93525.59;;;2.28;100.00
8334;BME280;4204;43.004;23.052;2023-02-04T01:14:44;93506.47;;;2.22;100.00
8334;BME280;4204;43.004;23.052;2023-02-04T01:17:12;93509.84;;;2.33;100.00
8334;BME280;4204;43.004;23.052;2023-02-04T01:19:40;93502.81;;;2.23;100.00
8334;BME280;4204;43.004;23.052;2023-02-04T01:22:08;93501.50;;;2.16;100.00
8334;BME280;4204;43.004;23.052;2023-02-04T01:24:37;93489.44;;;2.20;100.00
8334;BME280;4204;43.004;23.052;2023-02-04T01:27:23;93487.13;;;2.08;100.00
8334;BME280;4204;43.004;23.052;2023-02-04T01:29:51;93504.13;;;2.21;100.00
8334;BME280;4204;43.004;23.052;2023-02-04T01:32:19;93501.28;;;2.07;100.00
8334;BME280;4204;43.004;23.052;2023-02-04T01:34:47;93488.63;;;2.19;100.00
8334;BME280;4204;43.004;23.052;2023-02-04T01:37:17;93477.28;;;2.34;100.00
8334;BME280;4204;43.004;23.052;2023-02-04T01:39:46;93469.41;;;2.39;100.00
8334;BME280;4204;43.004;23.052;2023-02-04T01:42:14;93464.44;;;2.32;100.00
8334;BME280;4204;43.004;23.052;2023-02-04T01:44:42;93477.03;;;2.35;100.00
8334;BME280;4204;43.004;23.052;2023-02-04T01:47:10;93470.25;;;2.29;100.00
8334;BME280;4204;43.004;23.052;2023-02-04T01:49:39;93475.22;;;2.31;100.00
8334;BME280;4204;43.004;23.052;2023-02-04T01:52:07;93468.09;;;2.36;100.00
8334;BME280;4204;43.004;23.052;2023-02-04T01:54:36;93456.28;;;2.39;100.00
8334;BME280;4204;43.004;23.052;2023-02-04T01:57:08;93451.09;;;2.29;100.00
8334;BME280;4204;43.004;23.052;2023-02-04T01:59:42;93452.75;;;2.10;100.00
8334;BME280;4204;43.004;23.052;2023-02-04T02:02:36;93454.75;;;2.28;100.00
8334;BME280;4204;43.004;23.052;2023-02-04T02:05:05;93437.47;;;2.27;100.00
8334;BME280;4204;43.004;23.052;2023-02-04T02:07:34;93432.78;;;2.19;100.00
8334;BME280;4204;43.004;23.052;2023-02-04T02:10:07;93424.34;;;2.22;100.00
8334;BME280;4204;43.004;23.052;2023-02-04T02:12:37;93418.06;;;2.23;100.00
8334;BME280;4204;43.004;23.052;2023-02-04T02:15:07;93410.72;;;2.25;100.00
8334;BME280;4204;43.004;23.052;2023-02-04T02:17:35;93387.75;;;2.07;100.00
8334;BME280;4204;43.004;23.052;2023-02-04T02:20:05;93393.16;;;2.20;100.00
8334;BME280;4204;43.004;23.052;2023-02-04T02:22:38;93394.31;;;2.43;100.00
8334;BME280;4204;43.004;23.052;2023-02-04T02:25:11;93394.22;;;2.58;100.00
8334;BME280;4204;43.004;23.052;2023-02-04T02:27:42;93385.41;;;2.44;100.00
8334;BME280;4204;43.004;23.052;2023-02-04T02:30:12;93381.75;;;2.40;100.00
8334;BME280;4204;43.004;23.052;2023-02-04T02:32:43;93370.06;;;2.17;100.00
8334;BME280;4204;43.004;23.052;2023-02-04T02:35:12;93388.44;;;2.17;100.00
8334;BME280;4204;43.004;23.052;2023-02-04T02:37:40;93391.41;;;2.06;100.00
8334;BME280;4204;43.004;23.052;2023-02-04T02:40:11;93378.84;;;2.03;100.00
8334;BME280;4204;43.004;23.052;2023-02-04T02:42:41;93380.63;;;2.07;100.00
8334;BME280;4204;43.004;23.052;2023-02-04T02:45:14;93374.06;;;2.10;100.00
8334;BME280;4204;43.004;23.052;2023-02-04T02:47:45;93362.03;;;2.09;100.00
8334;BME280;4204;43.004;23.052;2023-02-04T02:50:16;93354.94;;;3.34;100.00
8334;BME280;4204;43.004;23.052;2023-02-04T02:52:46;93348.69;;;3.30;100.00
8334;BME280;4204;43.004;23.052;2023-02-04T02:55:18;93360.09;;;2.58;100.00
8334;BME280;4204;43.004;23.052;2023-02-04T02:57:47;93326.84;;;2.10;100.00
8334;BME280;4204;43.004;23.052;2023-02-04T03:00:18;93339.25;;;1.99;100.00
8334;BME280;4204;43.004;23.052;2023-02-04T03:02:52;93339.50;;;2.03;100.00
8334;BME280;4204;43.004;23.052;2023-02-04T03:05:21;93344.41;;;2.14;100.00
8334;BME280;4204;43.004;23.052;2023-02-04T03:07:50;93357.81;;;2.13;100.00
8334;BME280;4204;43.004;23.052;2023-02-04T03:10:19;93338.28;;;2.24;100.00
8334;BME280;4204;43.004;23.052;2023-02-04T03:12:47;93329.88;;;2.27;100.00
8334;BME280;4204;43.004;23.052;2023-02-04T03:15:16;93321.22;;;2.26;100.00
8334;BME280;4204;43.004;23.052;2023-02-04T03:17:46;93336.16;;;2.31;100.00
8334;BME280;4204;43.004;23.052;2023-02-04T03:20:15;93332.28;;;2.23;100.00
8334;BME280;4204;43.004;23.052;2023-02-04T03:22:43;93329.66;;;2.23;100.00
8334;BME280;4204;43.004;23.052;2023-02-04T03:25:11;93329.28;;;2.40;100.00
8334;BME280;4204;43.004;23.052;2023-02-04T03:27:41;93321.56;;;2.54;100.00
8334;BME280;4204;43.004;23.052;2023-02-04T03:30:10;93327.44;;;2.69;100.00
8334;BME280;4204;43.004;23.052;2023-02-04T03:32:38;93330.34;;;2.68;100.00
8334;BME280;4204;43.004;23.052;2023-02-04T03:35:07;93323.66;;;2.52;100.00
8334;BME280;4204;43.004;23.052;2023-02-04T03:37:35;93303.28;;;2.38;100.00
8334;BME280;4204;43.004;23.052;2023-02-04T03:40:04;93303.53;;;2.42;100.00
8334;BME280;4204;43.004;23.052;2023-02-04T03:42:32;93306.16;;;2.42;100.00
8334;BME280;4204;43.004;23.052;2023-02-04T03:45:01;93304.31;;;2.42;100.00
8334;BME280;4204;43.004;23.052;2023-02-04T03:47:29;93300.66;;;2.38;100.00
8334;BME280;4204;43.004;23.052;2023-02-04T03:49:57;93305.19;;;2.33;100.00
8334;BME280;4204;43.004;23.052;2023-02-04T03:52:25;93291.75;;;2.39;100.00
8334;BME280;4204;43.004;23.052;2023-02-04T03:54:53;93299.19;;;2.27;100.00
8334;BME280;4204;43.004;23.052;2023-02-04T03:57:21;93297.59;;;2.31;100.00
8334;BME280;4204;43.004;23.052;2023-02-04T03:59:49;93290.53;;;2.27;100.00
8334;BME280;4204;43.004;23.052;2023-02-04T04:02:18;93284.13;;;2.38;100.00
8334;BME280;4204;43.004;23.052;2023-02-04T04:04:46;93286.50;;;2.39;100.00
8334;BME280;4204;43.004;23.052;2023-02-04T04:07:14;93293.28;;;2.45;100.00
8334;BME280;4204;43.004;23.052;2023-02-04T04:09:42;93282.00;;;2.45;100.00
8334;BME280;4204;43.004;23.052;2023-02-04T04:12:10;93285.69;;;2.44;100.00
8334;BME280;4204;43.004;23.052;2023-02-04T04:14:38;93300.56;;;2.54;100.00
8334;BME280;4204;43.004;23.052;2023-02-04T04:17:06;93301.09;;;2.51;100.00
8334;BME280;4204;43.004;23.052;2023-02-04T04:19:35;93284.00;;;2.53;100.00
8334;BME280;4204;43.004;23.052;2023-02-04T04:22:03;93279.06;;;2.52;100.00
8334;BME280;4204;43.004;23.052;2023-02-04T04:24:35;93284.63;;;2.45;100.00
8334;BME280;4204;43.004;23.052;2023-02-04T04:27:05;93292.00;;;2.38;100.00
8334;BME280;4204;43.004;23.052;2023-02-04T04:29:34;93292.16;;;2.18;100.00
8334;BME280;4204;43.004;23.052;2023-02-04T04:32:02;93296.16;;;2.10;100.00
8334;BME280;4204;43.004;23.052;2023-02-04T04:34:30;93292.72;;;2.15;100.00
8334;BME280;4204;43.004;23.052;2023-02-04T04:37:00;93287.72;;;2.13;100.00
8334;BME280;4204;43.004;23.052;2023-02-04T04:39:28;93267.22;;;2.20;100.00
8334;BME280;4204;43.004;23.052;2023-02-04T04:41:56;93257.75;;;1.91;100.00
8334;BME280;4204;43.004;23.052;2023-02-04T04:44:24;93269.31;;;1.85;100.00
8334;BME280;4204;43.004;23.052;2023-02-04T04:46:51;93272.25;;;1.78;100.00
8334;BME280;4204;43.004;23.052;2023-02-04T04:49:19;93269.63;;;1.78;100.00
8334;BME280;4204;43.004;23.052;2023-02-04T04:51:47;93290.97;;;2.39;100.00
8334;BME280;4204;43.004;23.052;2023-02-04T04:54:17;93303.75;;;2.79;100.00
8334;BME280;4204;43.004;23.052;2023-02-04T04:56:45;93318.03;;;2.63;100.00
8334;BME280;4204;43.004;23.052;2023-02-04T04:59:13;93326.75;;;2.25;100.00
8334;BME280;4204;43.004;23.052;2023-02-04T05:01:41;93320.00;;;2.14;100.00
8334;BME280;4204;43.004;23.052;2023-02-04T05:04:08;93316.06;;;2.11;100.00
8334;BME280;4204;43.004;23.052;2023-02-04T05:06:36;93323.72;;;2.08;100.00
8334;BME280;4204;43.004;23.052;2023-02-04T05:09:04;93308.13;;;1.88;100.00
8334;BME280;4204;43.004;23.052;2023-02-04T05:11:34;93315.09;;;2.02;100.00
8334;BME280;4204;43.004;23.052;2023-02-04T05:14:02;93309.06;;;2.07;100.00
8334;BME280;4204;43.004;23.052;2023-02-04T05:16:30;93312.03;;;1.90;100.00
8334;BME280;4204;43.004;23.052;2023-02-04T05:18:58;93320.44;;;1.87;100.00
8334;BME280;4204;43.004;23.052;2023-02-04T05:21:26;93318.56;;;1.93;100.00
8334;BME280;4204;43.004;23.052;2023-02-04T05:23:54;93325.66;;;1.92;100.00
8334;BME280;4204;43.004;23.052;2023-02-04T05:26:22;93321.22;;;1.88;100.00
8334;BME280;4204;43.004;23.052;2023-02-04T05:28:51;93343.69;;;1.99;100.00
8334;BME280;4204;43.004;23.052;2023-02-04T05:31:19;93326.91;;;2.05;100.00
8334;BME280;4204;43.004;23.052;2023-02-04T05:33:47;93319.25;;;2.08;100.00
8334;BME280;4204;43.004;23.052;2023-02-04T05:36:15;93313.00;;;1.99;100.00
8334;BME280;4204;43.004;23.052;2023-02-04T05:38:43;93312.72;;;2.06;100.00
8334;BME280;4204;43.004;23.052;2023-02-04T05:41:11;93328.19;;;2.07;100.00
8334;BME280;4204;43.004;23.052;2023-02-04T05:43:39;93308.25;;;2.06;100.00
8334;BME280;4204;43.004;23.052;2023-02-04T05:46:09;93304.31;;;2.09;100.00
8334;BME280;4204;43.004;23.052;2023-02-04T05:48:37;93306.09;;;2.13;100.00
8334;BME280;4204;43.004;23.052;2023-02-04T05:51:05;93302.44;;;2.14;100.00
8334;BME280;4204;43.004;23.052;2023-02-04T05:53:33;93301.56;;;2.24;100.00
8334;BME280;4204;43.004;23.052;2023-02-04T05:56:01;93326.19;;;2.33;100.00
8334;BME280;4204;43.004;23.052;2023-02-04T05:58:29;93318.72;;;2.45;100.00
8334;BME280;4204;43.004;23.052;2023-02-04T06:00:58;93326.06;;;2.48;100.00
8334;BME280;4204;43.004;23.052;2023-02-04T06:03:29;93314.19;;;2.56;100.00
8334;BME280;4204;43.004;23.052;2023-02-04T06:05:58;93316.28;;;2.59;100.00
8334;BME280;4204;43.004;23.052;2023-02-04T06:08:26;93312.84;;;2.58;100.00
8334;BME280;4204;43.004;23.052;2023-02-04T06:10:54;93313.41;;;2.55;100.00
8334;BME280;4204;43.004;23.052;2023-02-04T06:13:22;93314.41;;;2.59;100.00
8334;BME280;4204;43.004;23.052;2023-02-04T06:15:49;93312.09;;;2.53;100.00
8334;BME280;4204;43.004;23.052;2023-02-04T06:18:17;93322.56;;;2.58;100.00
8334;BME280;4204;43.004;23.052;2023-02-04T06:20:47;93322.25;;;2.64;100.00
8334;BME280;4204;43.004;23.052;2023-02-04T06:23:15;93311.53;;;2.61;100.00
8334;BME280;4204;43.004;23.052;2023-02-04T06:25:42;93315.41;;;2.63;100.00
8334;BME280;4204;43.004;23.052;2023-02-04T06:28:12;93308.34;;;2.64;100.00
8334;BME280;4204;43.004;23.052;2023-02-04T06:30:40;93304.91;;;2.63;100.00
8334;BME280;4204;43.004;23.052;2023-02-04T06:33:09;93308.31;;;2.69;100.00
8334;BME280;4204;43.004;23.052;2023-02-04T06:35:37;93304.69;;;2.60;100.00
8334;BME280;4204;43.004;23.052;2023-02-04T06:38:07;93302.81;;;2.65;100.00
8334;BME280;4204;43.004;23.052;2023-02-04T06:40:35;93313.06;;;2.67;100.00
8334;BME280;4204;43.004;23.052;2023-02-04T06:43:03;93301.94;;;2.75;100.00
8334;BME280;4204;43.004;23.052;2023-02-04T06:45:32;93299.03;;;2.76;100.00
8334;BME280;4204;43.004;23.052;2023-02-04T06:48:01;93288.00;;;2.79;100.00
8334;BME280;4204;43.004;23.052;2023-02-04T06:50:29;93288.03;;;2.74;100.00
8334;BME280;4204;43.004;23.052;2023-02-04T06:52:57;93292.69;;;2.82;100.00
8334;BME280;4204;43.004;23.052;2023-02-04T06:55:26;93294.69;;;2.90;100.00
8334;BME280;4204;43.004;23.052;2023-02-04T06:57:54;93291.84;;;2.87;100.00
8334;BME280;4204;43.004;23.052;2023-02-04T07:00:22;93308.13;;;2.89;100.00
8334;BME280;4204;43.004;23.052;2023-02-04T07:02:50;93313.16;;;2.85;100.00
8334;BME280;4204;43.004;23.052;2023-02-04T07:05:18;93304.00;;;2.78;100.00
8334;BME280;4204;43.004;23.052;2023-02-04T07:07:46;93303.75;;;2.79;100.00
8334;BME280;4204;43.004;23.052;2023-02-04T07:10:14;93307.09;;;2.85;100.00
8334;BME280;4204;43.004;23.052;2023-02-04T07:12:44;93306.88;;;2.81;100.00
8334;BME280;4204;43.004;23.052;2023-02-04T07:15:12;93310.06;;;2.73;100.00
8334;BME280;4204;43.004;23.052;2023-02-04T07:17:40;93311.19;;;2.67;100.00
8334;BME280;4204;43.004;23.052;2023-02-04T07:20:10;93314.06;;;2.99;100.00
8334;BME280;4204;43.004;23.052;2023-02-04T07:22:38;93299.31;;;3.03;100.00
8334;BME280;4204;43.004;23.052;2023-02-04T07:25:08;93302.34;;;3.10;100.00
8334;BME280;4204;43.004;23.052;2023-02-04T07:27:36;93266.03;;;2.94;100.00
8334;BME280;4204;43.004;23.052;2023-02-04T07:30:07;93297.59;;;3.12;100.00
8334;BME280;4204;43.004;23.052;2023-02-04T07:32:35;93302.97;;;3.02;100.00
8334;BME280;4204;43.004;23.052;2023-02-04T07:35:04;93299.09;;;3.00;100.00
8334;BME280;4204;43.004;23.052;2023-02-04T07:37:32;93309.81;;;3.03;100.00
8334;BME280;4204;43.004;23.052;2023-02-04T07:39:59;93309.81;;;3.03;100.00
8334;BME280;4204;43.004;23.052;2023-02-04T07:42:28;93312.09;;;3.10;100.00
8334;BME280;4204;43.004;23.052;2023-02-04T07:45:07;93319.91;;;3.15;100.00
8334;BME280;4204;43.004;23.052;2023-02-04T07:47:35;93310.25;;;3.10;100.00
8334;BME280;4204;43.004;23.052;2023-02-04T07:50:04;93317.03;;;3.16;100.00
8334;BME280;4204;43.004;23.052;2023-02-04T07:52:32;93320.38;;;3.22;100.00
8334;BME280;4204;43.004;23.052;2023-02-04T07:55:00;93311.78;;;3.16;100.00
8334;BME280;4204;43.004;23.052;2023-02-04T07:57:29;93308.97;;;3.08;100.00
8334;BME280;4204;43.004;23.052;2023-02-04T07:59:57;93305.34;;;3.04;100.00
8334;BME280;4204;43.004;23.052;2023-02-04T08:02:27;93300.31;;;3.07;100.00
8334;BME280;4204;43.004;23.052;2023-02-04T08:04:55;93301.63;;;3.05;100.00
8334;BME280;4204;43.004;23.052;2023-02-04T08:07:23;93304.47;;;3.08;100.00
8334;BME280;4204;43.004;23.052;2023-02-04T08:09:51;93303.09;;;3.16;100.00
8334;BME280;4204;43.004;23.052;2023-02-04T08:12:19;93306.34;;;3.08;100.00
8334;BME280;4204;43.004;23.052;2023-02-04T08:14:46;93297.91;;;3.11;100.00
8334;BME280;4204;43.004;23.052;2023-02-04T08:17:14;93287.09;;;3.12;100.00
8334;BME280;4204;43.004;23.052;2023-02-04T08:19:43;93293.38;;;3.16;100.00
8334;BME280;4204;43.004;23.052;2023-02-04T08:22:11;93289.78;;;3.07;100.00
8334;BME280;4204;43.004;23.052;2023-02-04T08:24:39;93289.78;;;3.07;100.00
8334;BME280;4204;43.004;23.052;2023-02-04T08:27:07;93288.47;;;3.10;100.00
8334;BME280;4204;43.004;23.052;2023-02-04T08:29:36;93287.47;;;3.06;100.00
8334;BME280;4204;43.004;23.052;2023-02-04T08:32:04;93285.16;;;2.99;100.00
8334;BME280;4204;43.004;23.052;2023-02-04T08:34:32;93283.66;;;2.93;100.00
8334;BME280;4204;43.004;23.052;2023-02-04T08:37:01;93287.81;;;2.94;100.00
8334;BME280;4204;43.004;23.052;2023-02-04T08:39:29;93284.19;;;2.90;100.00
8334;BME280;4204;43.004;23.052;2023-02-04T08:41:58;93281.06;;;2.88;100.00
8334;BME280;4204;43.004;23.052;2023-02-04T08:44:26;93281.78;;;2.94;100.00
8334;BME280;4204;43.004;23.052;2023-02-04T08:46:54;93278.09;;;2.95;100.00
8334;BME280;4204;43.004;23.052;2023-02-04T08:49:22;93273.66;;;2.95;100.00
8334;BME280;4204;43.004;23.052;2023-02-04T08:51:50;93283.81;;;3.02;100.00
8334;BME280;4204;43.004;23.052;2023-02-04T08:54:19;93283.53;;;3.03;100.00
8334;BME280;4204;43.004;23.052;2023-02-04T08:56:47;93285.09;;;3.04;100.00
8334;BME280;4204;43.004;23.052;2023-02-04T08:59:15;93274.94;;;2.98;100.00
8334;BME280;4204;43.004;23.052;2023-02-04T09:01:43;93283.53;;;3.03;100.00
8334;BME280;4204;43.004;23.052;2023-02-04T09:04:14;93282.03;;;2.97;100.00
8334;BME280;4204;43.004;23.052;2023-02-04T09:06:42;93283.53;;;3.03;100.00
8334;BME280;4204;43.004;23.052;2023-02-04T09:09:12;93286.56;;;3.15;100.00
8334;BME280;4204;43.004;23.052;2023-02-04T09:11:42;93279.22;;;3.12;100.00
8334;BME280;4204;43.004;23.052;2023-02-04T09:14:10;93284.75;;;3.11;100.00
8334;BME280;4204;43.004;23.052;2023-02-04T09:16:38;93288.41;;;3.15;100.00
8334;BME280;4204;43.004;23.052;2023-02-04T09:19:09;93293.53;;;3.25;100.00
8334;BME280;4204;43.004;23.052;2023-02-04T09:21:41;93285.75;;;3.15;100.00
8334;BME280;4204;43.004;23.052;2023-02-04T09:24:10;93280.78;;;3.13;100.00
8334;BME280;4204;43.004;23.052;2023-02-04T09:26:38;93290.25;;;3.14;100.00
8334;BME280;4204;43.004;23.052;2023-02-04T09:29:08;93279.78;;;3.09;100.00
8334;BME280;4204;43.004;23.052;2023-02-04T09:31:36;93274.88;;;3.03;100.00
8334;BME280;4204;43.004;23.052;2023-02-04T09:34:04;93280.28;;;3.11;100.00
8334;BME280;4204;43.004;23.052;2023-02-04T09:36:32;93278.97;;;3.14;100.00
8334;BME280;4204;43.004;23.052;2023-02-04T09:39:03;93269.75;;;3.16;100.00
8334;BME280;4204;43.004;23.052;2023-02-04T09:41:35;93272.63;;;3.15;100.00
8334;BME280;4204;43.004;23.052;2023-02-04T09:44:11;93273.47;;;3.10;100.00
8334;BME280;4204;43.004;23.052;2023-02-04T09:46:41;93269.25;;;3.14;100.00
8334;BME280;4204;43.004;23.052;2023-02-04T09:49:14;93258.06;;;3.04;100.00
8334;BME280;4204;43.004;23.052;2023-02-04T09:51:42;93264.81;;;3.10;100.00
8334;BME280;4204;43.004;23.052;2023-02-04T09:54:13;93260.31;;;3.10;100.00
8334;BME280;4204;43.004;23.052;2023-02-04T09:56:42;93253.56;;;3.04;100.00
8334;BME280;4204;43.004;23.052;2023-02-04T09:59:13;93260.06;;;3.12;100.00
8334;BME280;4204;43.004;23.052;2023-02-04T10:01:42;93252.69;;;3.14;100.00
8334;BME280;4204;43.004;23.052;2023-02-04T10:04:14;93243.19;;;3.18;100.00
8334;BME280;4204;43.004;23.052;2023-02-04T10:06:43;93247.94;;;3.16;100.00
8334;BME280;4204;43.004;23.052;2023-02-04T10:09:11;93245.63;;;3.09;100.00
8334;BME280;4204;43.004;23.052;2023-02-04T10:11:42;93244.06;;;3.08;100.00
8334;BME280;4204;43.004;23.052;2023-02-04T10:14:14;93229.41;;;3.02;100.00
8334;BME280;4204;43.004;23.052;2023-02-04T10:16:47;93235.91;;;3.10;100.00
8334;BME280;4204;43.004;23.052;2023-02-04T10:19:18;93233.56;;;3.08;100.00
8334;BME280;4204;43.004;23.052;2023-02-04T10:21:46;93234.41;;;3.04;100.00
8334;BME280;4204;43.004;23.052;2023-02-04T10:24:16;93226.59;;;2.99;100.00
8334;BME280;4204;43.004;23.052;2023-02-04T10:26:46;93221.38;;;2.94;100.00
8334;BME280;4204;43.004;23.052;2023-02-04T10:29:18;93224.66;;;3.04;100.00
8334;BME280;4204;43.004;23.052;2023-02-04T10:31:48;93215.78;;;3.00;100.00
8334;BME280;4204;43.004;23.052;2023-02-04T10:34:18;93223.44;;;2.97;100.00
8334;BME280;4204;43.004;23.052;2023-02-04T10:36:50;93225.88;;;2.93;100.00
8334;BME280;4204;43.004;23.052;2023-02-04T10:39:21;93214.53;;;2.98;100.00
8334;BME280;4204;43.004;23.052;2023-02-04T10:41:50;93205.34;;;2.95;100.00
8334;BME280;4204;43.004;23.052;2023-02-04T10:44:28;93209.78;;;3.00;100.00
8334;BME280;4204;43.004;23.052;2023-02-04T10:47:01;93212.81;;;3.07;100.00
8334;BME280;4204;43.004;23.052;2023-02-04T10:49:30;93212.03;;;3.06;100.00
8334;BME280;4204;43.004;23.052;2023-02-04T10:52:00;93213.41;;;3.04;100.00
8334;BME280;4204;43.004;23.052;2023-02-04T10:54:36;93204.72;;;3.03;100.00
8334;BME280;4204;43.004;23.052;2023-02-04T10:57:12;93209.47;;;3.01;100.00
8334;BME280;4204;43.004;23.052;2023-02-04T10:59:45;93198.16;;;3.06;100.00
8334;BME280;4204;43.004;23.052;2023-02-04T11:02:42;93198.84;;;3.11;100.00
8334;BME280;4204;43.004;23.052;2023-02-04T11:05:17;93193.66;;;3.06;100.00
8334;BME280;4204;43.004;23.052;2023-02-04T11:07:46;93192.09;;;3.05;100.00
8334;BME280;4204;43.004;23.052;2023-02-04T11:10:18;93197.50;;;3.14;100.00
8334;BME280;4204;43.004;23.052;2023-02-04T11:12:59;93192.81;;;3.11;100.00
8334;BME280;4204;43.004;23.052;2023-02-04T11:15:44;93187.84;;;3.09;100.00
8334;BME280;4204;43.004;23.052;2023-02-04T11:18:25;93199.97;;;3.05;100.00
8334;BME280;4204;43.004;23.052;2023-02-04T11:20:57;93191.31;;;3.05;100.00
8334;BME280;4204;43.004;23.052;2023-02-04T11:23:31;93189.75;;;3.04;100.00
8334;BME280;4204;43.004;23.052;2023-02-04T11:26:10;93194.09;;;3.13;100.00
8334;BME280;4204;43.004;23.052;2023-02-04T11:28:46;93195.00;;;3.04;100.00
8334;BME280;4204;43.004;23.052;2023-02-04T11:31:41;93195.69;;;3.14;100.00
8334;BME280;4204;43.004;23.052;2023-02-04T11:34:23;93189.97;;;3.07;100.00
8334;BME280;4204;43.004;23.052;2023-02-04T11:37:02;93193.09;;;3.09;100.00
8334;BME280;4204;43.004;23.052;2023-02-04T11:39:35;93192.25;;;3.14;100.00
8334;BME280;4204;43.004;23.052;2023-02-04T11:42:03;93185.75;;;3.06;100.00
8334;BME280;4204;43.004;23.052;2023-02-04T11:44:31;93189.63;;;3.14;100.00
8334;BME280;4204;43.004;23.052;2023-02-04T11:47:06;93184.38;;;3.14;100.00
8334;BME280;4204;43.004;23.052;2023-02-04T11:49:35;93173.13;;;3.08;100.00
8334;BME280;4204;43.004;23.052;2023-02-04T11:52:05;93177.69;;;3.21;100.00
8334;BME280;4204;43.004;23.052;2023-02-04T11:54:34;93173.09;;;3.13;100.00
8334;BME280;4204;43.004;23.052;2023-02-04T11:57:03;93172.09;;;3.09;100.00
8334;BME280;4204;43.004;23.052;2023-02-04T11:59:31;93162.19;;;3.01;100.00
8334;BME280;4204;43.004;23.052;2023-02-04T12:02:06;93165.19;;;3.13;100.00
8334;BME280;4204;43.004;23.052;2023-02-04T12:04:50;93160.66;;;3.19;100.00
8334;BME280;4204;43.004;23.052;2023-02-04T12:07:22;93151.22;;;3.18;100.00
8334;BME280;4204;43.004;23.052;2023-02-04T12:09:51;93151.00;;;3.14;100.00
8334;BME280;4204;43.004;23.052;2023-02-04T12:12:24;93159.03;;;3.23;100.00
8334;BME280;4204;43.004;23.052;2023-02-04T12:14:57;93156.63;;;3.26;100.00
8334;BME280;4204;43.004;23.052;2023-02-04T12:17:29;93151.28;;;3.32;100.00
8334;BME280;4204;43.004;23.052;2023-02-04T12:19:57;93152.06;;;3.32;100.00
8334;BME280;4204;43.004;23.052;2023-02-04T12:22:25;93152.28;;;3.36;100.00
8334;BME280;4204;43.004;23.052;2023-02-04T12:24:53;93152.22;;;3.41;100.00
8334;BME280;4204;43.004;23.052;2023-02-04T12:27:21;93143.19;;;3.47;100.00
8334;BME280;4204;43.004;23.052;2023-02-04T12:29:49;93152.22;;;3.41;100.00
8334;BME280;4204;43.004;23.052;2023-02-04T12:32:16;93146.88;;;3.46;100.00
8334;BME280;4204;43.004;23.052;2023-02-04T12:34:46;93148.88;;;3.54;100.00
8334;BME280;4204;43.004;23.052;2023-02-04T12:37:14;93153.22;;;3.45;100.00
8334;BME280;4204;43.004;23.052;2023-02-04T12:39:42;93154.75;;;3.46;100.00
8334;BME280;4204;43.004;23.052;2023-02-04T12:42:10;93152.72;;;3.43;100.00
8334;BME280;4204;43.004;23.052;2023-02-04T12:44:39;93157.38;;;3.46;100.00
8334;BME280;4204;43.004;23.052;2023-02-04T12:47:07;93148.38;;;3.52;100.00
8334;BME280;4204;43.004;23.052;2023-02-04T12:49:35;93152.44;;;3.44;100.00
8334;BME280;4204;43.004;23.052;2023-02-04T12:52:05;93149.09;;;3.57;100.00
8334;BME280;4204;43.004;23.052;2023-02-04T12:54:33;93154.63;;;3.56;100.00
8334;BME280;4204;43.004;23.052;2023-02-04T12:57:02;93158.19;;;3.46;100.00
8334;BME280;4204;43.004;23.052;2023-02-04T12:59:30;93147.66;;;3.46;100.00
8334;BME280;4204;43.004;23.052;2023-02-04T13:01:57;93157.97;;;3.43;100.00
8334;BME280;4204;43.004;23.052;2023-02-04T13:04:25;93158.13;;;3.51;100.00
8334;BME280;4204;43.004;23.052;2023-02-04T13:06:53;93159.31;;;3.59;100.00
8334;BME280;4204;43.004;23.052;2023-02-04T13:09:23;93163.72;;;3.63;100.00
8334;BME280;4204;43.004;23.052;2023-02-04T13:11:51;93162.72;;;3.59;100.00
8334;BME280;4204;43.004;23.052;2023-02-04T13:14:19;93168.78;;;3.60;100.00
8334;BME280;4204;43.004;23.052;2023-02-04T13:16:48;93168.00;;;3.59;100.00
8334;BME280;4204;43.004;23.052;2023-02-04T13:19:15;93152.63;;;3.48;100.00
8334;BME280;4204;43.004;23.052;2023-02-04T13:21:44;93181.00;;;3.51;100.00